Time;durP1;ratioP1;P1;durP2;ratioP2;P2;SDS_P1;SDS_P2;PMS_P1;PMS_P2;Temp;Humidity;BMP_temperature;BMP_pressure;BME280_temperature;BME280_humidity;BME280_pressure;Samples;Min_cycle;Max_cycle;Signal;HPM_P1;HPM_P2
2021/06/11 00:00:27;;;;;;;13.60;12.43;;;;;;;21.07;47.66;101808.84;6144175;28;20223;-52
2021/06/11 00:03:47;;;;;;;12.82;11.63;;;;;;;20.99;47.62;101809.97;6147477;28;20234;-52
2021/06/11 00:07:08;;;;;;;11.27;10.38;;;;;;;20.94;47.79;101806.66;6150195;28;20570;-51
2021/06/11 00:10:29;;;;;;;12.60;11.50;;;;;;;21.09;47.14;101796.41;6140501;28;20656;-52
2021/06/11 00:13:51;;;;;;;12.00;10.93;;;;;;;21.02;47.66;101801.94;6148929;28;20231;-52
2021/06/11 00:17:11;;;;;;;11.85;10.85;;;;;;;20.96;47.71;101799.50;6149990;28;20231;-50
2021/06/11 00:20:32;;;;;;;12.02;11.02;;;;;;;20.64;48.57;101801.53;6145555;28;20521;-51
2021/06/11 00:23:53;;;;;;;10.90;10.05;;;;;;;20.73;48.35;101792.41;6150629;28;20581;-51
2021/06/11 00:27:14;;;;;;;12.98;11.73;;;;;;;20.62;48.78;101792.78;6149519;28;20235;-50
2021/06/11 00:30:36;;;;;;;12.68;11.57;;;;;;;20.65;48.60;101792.69;6144846;28;20277;-54
2021/06/11 00:33:56;;;;;;;13.55;12.13;;;;;;;20.55;49.44;101787.72;6152777;28;20235;-54
2021/06/11 00:37:17;;;;;;;12.60;11.43;;;;;;;20.25;50.40;101783.47;6146807;28;20243;-56
2021/06/11 00:40:39;;;;;;;13.45;12.35;;;;;;;20.31;50.12;101785.03;6149390;28;20668;-53
2021/06/11 00:43:59;;;;;;;10.32;9.43;;;;;;;20.61;49.13;101783.13;6148192;28;20500;-51
2021/06/11 00:47:21;;;;;;;12.02;10.95;;;;;;;20.42;49.52;101790.81;6149462;28;20711;-51
2021/06/11 00:50:41;;;;;;;10.68;9.88;;;;;;;20.27;50.16;101778.97;6145889;28;20234;-53
2021/06/11 00:54:02;;;;;;;11.07;10.07;;;;;;;20.30;50.21;101782.44;6138503;28;20648;-53
2021/06/11 00:57:22;;;;;;;12.75;11.68;;;;;;;20.58;49.30;101783.19;6133557;28;20230;-54
2021/06/11 01:00:44;;;;;;;12.48;11.38;;;;;;;20.42;49.68;101774.09;6145349;28;20230;-55
2021/06/11 01:04:06;;;;;;;11.10;10.20;;;;;;;20.43;49.71;101770.50;6147157;28;20266;-53
2021/06/11 01:07:28;;;;;;;12.30;11.20;;;;;;;20.21;50.54;101775.69;6154564;28;20235;-55
2021/06/11 01:10:50;;;;;;;11.52;10.45;;;;;;;20.51;49.49;101776.41;6141236;28;20230;-51
2021/06/11 01:14:11;;;;;;;12.95;11.75;;;;;;;20.21;50.46;101776.53;6147915;28;20711;-53
2021/06/11 01:17:34;;;;;;;11.20;10.20;;;;;;;20.33;50.07;101777.91;6153162;28;20239;-54
2021/06/11 01:20:56;;;;;;;11.10;10.20;;;;;;;20.12;50.76;101768.06;6148977;28;20329;-52
2021/06/11 01:24:20;;;;;;;11.70;10.73;;;;;;;20.15;50.85;101768.84;6154821;28;20251;-49
2021/06/11 01:27:46;;;;;;;11.98;10.93;;;;;;;20.20;50.46;101777.47;6120037;28;20234;-53
2021/06/11 01:31:07;;;;;;;11.23;10.23;;;;;;;20.16;51.08;101774.97;6145720;28;20238;-53
2021/06/11 01:34:31;;;;;;;12.18;11.18;;;;;;;19.79;52.25;101774.44;6148579;28;20254;-53
2021/06/11 01:37:56;;;;;;;12.52;11.43;;;;;;;19.98;51.58;101771.19;6153145;28;20239;-48
2021/06/11 01:41:19;;;;;;;12.65;11.60;;;;;;;19.94;51.87;101777.50;6147136;28;20623;-54
2021/06/11 01:44:44;;;;;;;13.70;12.40;;;;;;;19.77;52.63;101773.59;6143104;28;20234;-48
2021/06/11 01:48:05;;;;;;;13.82;12.73;;;;;;;19.70;53.32;101771.16;6145969;28;20242;-52
2021/06/11 01:51:27;;;;;;;14.57;13.27;;;;;;;19.73;53.01;101777.25;6141484;28;20235;-49
2021/06/11 01:54:48;;;;;;;13.35;12.23;;;;;;;19.73;52.98;101771.97;6151702;28;20267;-54
2021/06/11 01:58:10;;;;;;;14.30;13.10;;;;;;;19.79;52.82;101778.84;6150571;28;20227;-52
2021/06/11 02:01:33;;;;;;;13.57;12.40;;;;;;;19.51;54.13;101781.47;6151929;28;20244;-52
2021/06/11 02:04:54;;;;;;;11.27;10.38;;;;;;;19.77;53.42;101773.59;6142692;28;20309;-53
2021/06/11 02:08:17;;;;;;;13.02;11.93;;;;;;;19.72;53.43;101769.41;6155771;28;20358;-50
2021/06/11 02:11:41;;;;;;;13.75;12.55;;;;;;;19.84;52.70;101769.00;6147475;28;20421;-52
2021/06/11 02:15:04;;;;;;;12.32;11.27;;;;;;;19.98;52.75;101774.69;6150259;28;20597;-52
2021/06/11 02:18:26;;;;;;;13.82;12.65;;;;;;;19.77;53.39;101772.75;6156920;28;20498;-51
2021/06/11 02:21:47;;;;;;;13.07;11.95;;;;;;;19.74;53.67;101773.72;6148905;28;20282;-52
2021/06/11 02:25:09;;;;;;;12.15;11.15;;;;;;;19.64;53.59;101772.25;6156103;28;20235;-55
2021/06/11 02:28:29;;;;;;;12.10;11.00;;;;;;;19.56;54.09;101775.13;6147078;28;20266;-50
2021/06/11 02:31:50;;;;;;;13.30;12.00;;;;;;;19.47;54.69;101770.13;6153795;28;20262;-53
2021/06/11 02:35:16;;;;;;;14.07;12.88;;;;;;;19.46;54.50;101769.28;6156765;28;20235;-51
2021/06/11 02:38:36;;;;;;;13.48;12.30;;;;;;;19.59;54.49;101764.47;6149437;28;20238;-51
2021/06/11 02:42:01;;;;;;;15.07;13.52;;;;;;;19.50;55.40;101771.81;6153072;28;20877;-53
2021/06/11 02:45:26;;;;;;;15.55;14.18;;;;;;;19.38;55.55;101773.91;6153005;28;20317;-53
2021/06/11 02:48:52;;;;;;;14.05;12.75;;;;;;;19.47;54.70;101772.78;6157008;28;20455;-52
2021/06/11 02:52:15;;;;;;;13.90;12.60;;;;;;;19.59;54.44;101767.09;6149906;28;20231;-52
2021/06/11 02:55:37;;;;;;;14.70;13.35;;;;;;;19.57;54.66;101774.22;6135568;28;20230;-53
2021/06/11 02:59:02;;;;;;;14.00;12.80;;;;;;;19.66;54.73;101776.56;6143896;28;20223;-52
2021/06/11 03:02:29;;;;;;;21.80;19.90;;;;;;;19.63;55.39;101775.78;6154622;28;20554;-49
2021/06/11 03:05:54;;;;;;;26.05;23.77;;;;;;;19.58;55.77;101767.13;6150560;28;20802;-53
2021/06/11 03:09:21;;;;;;;20.00;18.25;;;;;;;19.61;55.27;101772.34;6148137;28;20227;-48
2021/06/11 03:12:43;;;;;;;21.70;19.55;;;;;;;19.32;56.57;101776.75;6154635;28;20230;-49
2021/06/11 03:16:04;;;;;;;21.52;19.63;;;;;;;19.45;55.90;101774.59;6144449;28;20616;-53
2021/06/11 03:19:29;;;;;;;18.67;16.98;;;;;;;19.63;55.24;101770.50;6154293;28;20235;-53
2021/06/11 03:22:56;;;;;;;17.40;15.88;;;;;;;19.66;55.75;101778.34;6149083;28;20314;-56
2021/06/11 03:26:26;;;;;;;18.25;16.50;;;;;;;19.61;55.95;101775.84;6145922;28;20317;-55
2021/06/11 03:29:50;;;;;;;20.67;18.85;;;;;;;19.58;55.91;101767.13;6148688;28;20237;-52
2021/06/11 03:33:14;;;;;;;21.33;19.42;;;;;;;19.68;55.68;101769.47;6155410;28;20322;-53
2021/06/11 03:36:40;;;;;;;21.85;19.98;;;;;;;19.77;55.32;101763.03;6137765;28;20249;-55
2021/06/11 03:40:04;;;;;;;19.77;17.75;;;;;;;19.52;56.52;101767.34;6155918;28;20223;-54
2021/06/11 03:43:28;;;;;;;19.90;17.90;;;;;;;19.66;55.87;101770.44;6152144;28;20222;-48
2021/06/11 03:46:49;;;;;;;20.33;18.45;;;;;;;19.67;55.91;101766.84;6146633;28;20258;-55
2021/06/11 03:50:11;;;;;;;19.38;17.63;;;;;;;19.80;55.48;101762.94;6145738;28;20280;-54
2021/06/11 03:53:34;;;;;;;20.67;18.75;;;;;;;19.99;54.94;101767.63;6151970;28;20238;-54
2021/06/11 03:56:55;;;;;;;21.00;18.98;;;;;;;19.38;57.52;101763.34;6155765;28;20227;-54
2021/06/11 04:00:19;;;;;;;19.70;18.08;;;;;;;19.69;56.45;101770.31;6149895;28;20326;-53
2021/06/11 04:03:40;;;;;;;21.95;19.80;;;;;;;19.73;56.48;101766.69;6151611;28;20234;-53
2021/06/11 04:07:06;;;;;;;19.38;17.52;;;;;;;20.05;55.39;101757.69;6148436;28;20614;-51
2021/06/11 04:10:31;;;;;;;21.77;19.77;;;;;;;20.12;55.31;101757.50;6139160;28;20230;-51
2021/06/11 04:13:55;;;;;;;21.92;19.98;;;;;;;19.78;56.29;101762.13;6147440;28;20723;-49
2021/06/11 04:17:22;;;;;;;26.35;20.83;;;;;;;20.05;55.75;101764.78;6151368;28;20320;-50
2021/06/11 04:20:48;;;;;;;20.52;18.83;;;;;;;20.20;55.43;101761.63;6152086;28;20231;-53
2021/06/11 04:24:11;;;;;;;24.55;22.45;;;;;;;20.07;55.79;101765.59;6148650;28;20265;-54
2021/06/11 04:27:36;;;;;;;23.00;20.88;;;;;;;20.29;55.31;101767.50;6131598;28;20616;-50
2021/06/11 04:30:56;;;;;;;23.63;21.45;;;;;;;20.29;55.14;101771.00;6146540;28;20507;-52
2021/06/11 04:34:18;;;;;;;24.33;22.23;;;;;;;20.31;55.08;101763.88;6153052;28;20243;-55
2021/06/11 04:37:39;;;;;;;22.70;20.50;;;;;;;20.20;55.50;101766.91;6152135;28;20231;-48
2021/06/11 04:40:59;;;;;;;23.63;21.50;;;;;;;19.99;55.95;101767.63;6149191;28;20590;-54
2021/06/11 04:44:22;;;;;;;24.08;21.77;;;;;;;20.15;55.88;101766.19;6145245;28;20239;-55
2021/06/11 04:47:43;;;;;;;26.27;24.02;;;;;;;20.47;54.84;101769.47;6149874;28;20238;-49
2021/06/11 04:51:05;;;;;;;24.23;21.85;;;;;;;20.65;54.38;101768.00;6149058;28;20303;-52
2021/06/11 04:54:26;;;;;;;23.90;21.55;;;;;;;20.59;54.50;101769.09;6147609;28;20222;-50
2021/06/11 04:57:46;;;;;;;24.20;21.90;;;;;;;20.71;54.29;101764.28;6149946;28;20239;-52
2021/06/11 05:01:09;;;;;;;24.77;22.52;;;;;;;20.62;53.86;101758.38;6149176;28;20519;-51
2021/06/11 05:04:30;;;;;;;25.40;23.13;;;;;;;20.50;54.63;101750.88;6147021;28;20226;-52
2021/06/11 05:07:51;;;;;;;25.65;23.27;;;;;;;20.91;53.46;101747.66;6147285;28;20271;-53
2021/06/11 05:11:12;;;;;;;25.95;23.63;;;;;;;20.92;53.19;101749.34;6143364;28;20253;-55
2021/06/11 05:14:32;;;;;;;24.60;22.30;;;;;;;21.11;53.22;101750.41;6144687;28;20239;-53
2021/06/11 05:17:53;;;;;;;24.77;22.25;;;;;;;21.10;52.79;101742.53;6148301;28;20226;-51
2021/06/11 05:21:13;;;;;;;24.60;22.30;;;;;;;21.28;51.91;101751.53;6158845;28;20253;-53
2021/06/11 05:24:36;;;;;;;23.10;20.88;;;;;;;21.27;51.57;101748.03;6156187;28;20226;-51
2021/06/11 05:27:56;;;;;;;22.05;19.92;;;;;;;21.61;51.20;101742.25;6145976;28;20242;-54
2021/06/11 05:31:17;;;;;;;24.40;22.05;;;;;;;21.51;51.19;101740.91;6149660;28;20230;-54
2021/06/11 05:34:37;;;;;;;22.33;20.38;;;;;;;21.89;49.45;101748.22;6143077;28;20247;-57
2021/06/11 05:38:02;;;;;;;20.45;18.65;;;;;;;22.39;47.88;101739.91;6143630;28;20738;-57
2021/06/11 05:41:23;;;;;;;16.15;14.60;;;;;;;22.22;47.40;101736.19;6139968;28;20238;-59
2021/06/11 05:44:44;;;;;;;14.88;13.48;;;;;;;22.68;46.73;101743.06;6143583;28;20223;-58
2021/06/11 05:48:06;;;;;;;13.98;12.60;;;;;;;22.83;45.80;101744.16;6149885;28;21058;-59
2021/06/11 05:51:27;;;;;;;15.95;13.85;;;;;;;22.70;46.05;101741.19;6152008;28;20341;-60
2021/06/11 05:54:47;;;;;;;16.95;15.40;;;;;;;22.97;44.36;101739.94;6153522;28;20246;-59
2021/06/11 05:58:11;;;;;;;15.68;14.13;;;;;;;23.04;44.52;101745.00;6146121;28;20239;-60
2021/06/11 06:01:32;;;;;;;15.77;14.27;;;;;;;22.99;43.83;101738.06;6136498;28;20244;-60
2021/06/11 06:04:53;;;;;;;12.07;11.07;;;;;;;23.32;44.39;101734.78;6130915;28;20688;-60
2021/06/11 06:08:13;;;;;;;11.00;9.88;;;;;;;23.98;42.68;101738.63;6142887;28;20624;-59
2021/06/11 06:11:34;;;;;;;11.15;10.18;;;;;;;24.01;42.65;101735.81;6143723;28;20295;-59
2021/06/11 06:14:57;;;;;;;9.90;9.10;;;;;;;24.24;41.84;101739.13;6147570;28;20254;-60
2021/06/11 06:18:18;;;;;;;12.27;11.18;;;;;;;23.98;41.70;101735.97;6145078;28;20239;-57
2021/06/11 06:21:38;;;;;;;10.48;9.50;;;;;;;24.07;41.47;101735.50;6143075;28;20243;-58
2021/06/11 06:24:58;;;;;;;13.30;12.10;;;;;;;24.15;41.17;101729.78;6148458;28;20627;-56
2021/06/11 06:28:19;;;;;;;13.50;12.30;;;;;;;23.81;42.20;101728.00;6145741;28;20239;-61
2021/06/11 06:31:41;;;;;;;13.20;12.00;;;;;;;23.67;42.81;101726.88;6142739;28;20631;-61
2021/06/11 06:35:02;;;;;;;17.13;10.52;;;;;;;24.13;41.14;101732.53;6149252;28;20263;-59
2021/06/11 06:38:24;;;;;;;15.50;14.05;;;;;;;23.50;42.96;101727.69;6146875;28;20591;-58
2021/06/11 06:41:45;;;;;;;16.17;13.50;;;;;;;23.82;42.00;101737.69;6141031;28;20235;-60
2021/06/11 06:45:08;;;;;;;13.23;12.02;;;;;;;23.69;42.38;101737.41;6149636;28;20318;-57
2021/06/11 06:48:31;;;;;;;11.13;10.13;;;;;;;23.73;42.16;101729.22;6145237;28;20239;-58
2021/06/11 06:51:52;;;;;;;8.30;7.57;;;;;;;22.69;41.31;101728.84;6149569;28;20238;-58
2021/06/11 06:55:13;;;;;;;7.43;6.25;;;;;;;23.20;41.44;101732.69;6127231;28;20269;-58
2021/06/11 06:58:36;;;;;;;5.00;3.85;;;;;;;23.82;39.52;101727.06;6144326;28;20231;-58
2021/06/11 07:01:57;;;;;;;5.35;4.85;;;;;;;24.13;38.59;101718.38;6143444;28;20668;-60
2021/06/11 07:05:19;;;;;;;4.28;3.97;;;;;;;24.34;39.07;101729.69;6147379;28;20238;-58
2021/06/11 07:08:40;;;;;;;8.90;4.65;;;;;;;24.34;38.74;101727.03;6140817;28;20505;-59
2021/06/11 07:12:00;;;;;;;4.50;4.18;;;;;;;24.88;37.33;101724.19;6147205;28;20488;-59
2021/06/11 07:15:20;;;;;;;5.50;4.57;;;;;;;24.60;37.82;101740.78;6151094;28;20601;-60
2021/06/11 07:18:41;;;;;;;6.45;5.60;;;;;;;24.86;37.76;101739.41;6148252;28;20238;-62
2021/06/11 07:22:06;;;;;;;5.97;5.35;;;;;;;24.76;38.00;101742.56;6141157;28;20243;-62
2021/06/11 07:25:26;;;;;;;5.57;5.07;;;;;;;24.62;38.09;101745.13;6152118;28;20234;-63
2021/06/11 07:28:47;;;;;;;6.07;5.60;;;;;;;24.50;38.82;101748.38;6149660;28;20235;-63
2021/06/11 07:32:08;;;;;;;5.22;4.45;;;;;;;24.84;38.45;101739.47;6145963;28;20518;-60
2021/06/11 07:35:28;;;;;;;4.53;4.10;;;;;;;25.05;38.25;101742.75;6146729;28;20242;-58
2021/06/11 07:38:50;;;;;;;3.10;2.88;;;;;;;25.43;38.15;101741.56;6142913;28;20698;-59
2021/06/11 07:42:12;;;;;;;6.13;5.60;;;;;;;25.24;37.73;101747.09;6142031;28;20243;-59
2021/06/11 07:45:32;;;;;;;5.85;5.18;;;;;;;24.87;37.91;101744.66;6135850;28;20626;-59
2021/06/11 07:48:53;;;;;;;4.68;3.80;;;;;;;25.28;37.48;101741.50;6137530;28;20333;-60
2021/06/11 07:52:13;;;;;;;4.57;3.90;;;;;;;25.19;38.54;101743.81;6143016;28;20231;-60
2021/06/11 07:55:35;;;;;;;5.20;3.25;;;;;;;25.43;38.18;101744.25;6144202;28;20242;-59
2021/06/11 07:58:55;;;;;;;5.90;3.88;;;;;;;25.70;37.68;101750.63;6142919;28;20243;-57
2021/06/11 08:02:16;;;;;;;3.95;3.65;;;;;;;25.38;37.06;101738.28;6146370;28;20231;-58
2021/06/11 08:05:39;;;;;;;7.40;5.05;;;;;;;24.86;38.31;101748.25;6148586;28;20230;-59
2021/06/11 08:08:59;;;;;;;5.53;2.65;;;;;;;23.99;39.29;101751.00;6147069;28;20231;-59
2021/06/11 08:12:21;;;;;;;4.78;3.40;;;;;;;24.26;39.05;101743.41;6145736;28;20517;-59
2021/06/11 08:15:43;;;;;;;3.40;3.00;;;;;;;24.48;38.95;101743.13;6148061;28;20237;-59
2021/06/11 08:19:03;;;;;;;3.55;3.25;;;;;;;24.23;39.32;101726.72;6147385;28;20230;-59
2021/06/11 08:22:24;;;;;;;3.40;3.10;;;;;;;24.27;38.98;101734.50;6145244;28;20243;-58
2021/06/11 08:25:45;;;;;;;5.75;3.90;;;;;;;23.32;41.69;101736.56;6148959;28;20259;-60
2021/06/11 08:29:07;;;;;;;7.85;4.30;;;;;;;24.25;39.87;101736.34;6143418;28;20227;-59
2021/06/11 08:32:27;;;;;;;4.13;3.83;;;;;;;24.70;39.19;101742.03;6150408;28;20254;-58
2021/06/11 08:35:48;;;;;;;4.53;3.95;;;;;;;24.81;39.22;101723.66;6145236;28;20948;-59
2021/06/11 08:39:08;;;;;;;4.38;4.05;;;;;;;25.70;38.22;101731.97;6141259;28;20239;-58
2021/06/11 08:42:30;;;;;;;4.57;3.80;;;;;;;25.49;38.75;101735.88;6146358;28;20234;-59
2021/06/11 08:45:53;;;;;;;5.18;3.47;;;;;;;26.43;36.80;101725.88;6145965;28;20671;-59
2021/06/11 08:49:13;;;;;;;3.28;2.67;;;;;;;26.25;37.52;101725.19;6143903;28;20233;-59
2021/06/11 08:52:33;;;;;;;2.92;2.72;;;;;;;25.93;38.01;101735.13;6145116;28;20673;-61
2021/06/11 08:55:54;;;;;;;4.47;3.10;;;;;;;26.19;37.62;101740.72;6145746;28;20235;-60
2021/06/11 08:59:14;;;;;;;3.63;2.70;;;;;;;26.36;37.10;101732.53;6149634;28;20231;-59
2021/06/11 09:03:14;;;;;;;4.00;3.08;;;;;;;26.81;36.59;101728.00;6149749;28;20254;-60
2021/06/11 09:06:34;;;;;;;5.13;4.32;;;;;;;26.79;37.13;101734.38;6136374;28;20229;-60
2021/06/11 09:09:59;;;;;;;6.43;4.90;;;;;;;26.69;36.45;101737.63;6148178;28;20334;-61
2021/06/11 09:13:24;;;;;;;5.00;4.70;;;;;;;26.23;37.67;101727.09;6144084;28;20248;-59
2021/06/11 09:16:47;;;;;;;4.63;3.25;;;;;;;26.69;37.37;101734.09;6146361;28;20246;-59
2021/06/11 09:20:12;;;;;;;6.85;4.90;;;;;;;26.08;37.44;101728.88;6146886;28;20245;-59
2021/06/11 09:23:32;;;;;;;3.38;3.05;;;;;;;26.56;38.57;101727.78;6147649;28;20500;-60
2021/06/11 09:27:10;;;;;;;6.47;3.85;;;;;;;26.60;37.32;101719.53;6143920;28;20226;-59
2021/06/11 09:30:34;;;;;;;5.28;3.25;;;;;;;27.10;36.28;101718.13;6153556;28;20576;-61
2021/06/11 09:33:54;;;;;;;4.53;4.13;;;;;;;26.80;36.86;101726.28;6146721;28;20266;-62
2021/06/11 09:37:17;;;;;;;6.65;5.05;;;;;;;27.04;36.61;101728.31;6147826;28;20234;-61
2021/06/11 09:40:38;;;;;;;7.72;4.68;;;;;;;27.03;37.25;101718.59;6150581;28;20234;-59
2021/06/11 09:43:58;;;;;;;5.40;4.90;;;;;;;26.58;36.70;101725.84;6149165;28;20227;-63
2021/06/11 09:47:36;;;;;;;8.65;6.05;;;;;;;26.58;36.52;101720.50;6148557;28;20257;-60
2021/06/11 09:50:57;;;;;;;5.32;4.82;;;;;;;26.48;37.67;101714.88;6150139;28;20238;-60
2021/06/11 09:54:29;;;;;;;5.43;4.47;;;;;;;26.75;36.35;101715.00;6137256;28;20356;-60
2021/06/11 09:58:02;;;;;;;4.40;3.45;;;;;;;27.50;36.07;101718.19;6152955;28;20230;-61
2021/06/11 10:01:25;;;;;;;3.88;2.83;;;;;;;27.82;35.17;101708.94;6144088;28;21730;-60
2021/06/11 10:04:45;;;;;;;4.32;3.95;;;;;;;27.64;35.61;101721.75;6149138;28;20234;-60
2021/06/11 10:08:07;;;;;;;4.40;4.10;;;;;;;27.55;35.92;101711.66;6153396;28;20230;-60
2021/06/11 10:11:31;;;;;;;5.85;4.28;;;;;;;27.46;35.29;101715.81;6149862;28;20318;-60
2021/06/11 10:14:51;;;;;;;4.07;3.78;;;;;;;27.58;35.64;101712.31;6149657;28;20231;-59
2021/06/11 10:18:13;;;;;;;7.88;4.50;;;;;;;28.07;34.77;101703.69;6140945;28;20239;-61
2021/06/11 10:21:33;;;;;;;4.60;3.42;;;;;;;27.97;34.90;101707.94;6146324;28;20230;-61
2021/06/11 10:24:55;;;;;;;4.63;4.22;;;;;;;27.06;36.46;101713.03;6145073;28;20242;-59
2021/06/11 10:28:19;;;;;;;4.55;3.92;;;;;;;27.47;35.88;101709.50;6148499;28;20773;-61
2021/06/11 10:31:41;;;;;;;4.10;3.70;;;;;;;27.77;34.66;101708.41;6151031;28;22410;-61
2021/06/11 10:35:01;;;;;;;4.97;3.05;;;;;;;27.53;35.82;101708.22;6149682;28;20242;-60
2021/06/11 10:38:34;;;;;;;4.60;4.10;;;;;;;27.68;35.66;101708.09;6149299;28;20676;-60
2021/06/11 10:42:07;;;;;;;4.90;4.47;;;;;;;27.35;35.62;101695.13;6148527;28;20612;-61
2021/06/11 10:45:44;;;;;;;6.25;4.13;;;;;;;27.19;36.46;101700.59;6150378;28;20296;-60
2021/06/11 10:49:07;;;;;;;4.85;4.18;;;;;;;27.30;36.46;101710.63;6144701;28;20714;-61
2021/06/11 10:52:29;;;;;;;4.75;4.25;;;;;;;26.94;36.89;101704.00;6150782;28;20239;-61
2021/06/11 10:55:50;;;;;;;6.03;4.90;;;;;;;26.68;37.12;101695.00;6146460;28;20234;-61
2021/06/11 10:59:31;;;;;;;10.70;6.75;;;;;;;26.71;37.04;101694.78;6143765;28;20238;-60
2021/06/11 11:02:57;;;;;;;4.57;4.20;;;;;;;27.08;36.12;101697.75;6150050;28;20235;-61
2021/06/11 11:06:31;;;;;;;4.13;3.83;;;;;;;28.13;35.25;101690.81;6145155;28;20235;-61
2021/06/11 11:09:53;;;;;;;5.30;4.78;;;;;;;27.21;36.02;101688.00;6144866;28;20738;-60
2021/06/11 11:13:15;;;;;;;4.43;3.90;;;;;;;27.85;35.69;101688.19;6151222;28;20753;-60
2021/06/11 11:16:37;;;;;;;4.20;3.80;;;;;;;28.59;34.31;101682.22;6147793;28;20235;-61
2021/06/11 11:20:02;;;;;;;4.38;3.92;;;;;;;29.02;33.86;101676.41;6146168;28;20230;-60
2021/06/11 11:23:26;;;;;;;4.45;3.55;;;;;;;28.82;33.64;101678.75;6149908;28;20245;-60
2021/06/11 11:26:48;;;;;;;5.03;4.03;;;;;;;28.65;34.33;101671.94;6145850;28;20238;-60
2021/06/11 11:30:10;;;;;;;7.63;4.13;;;;;;;28.76;34.80;101668.47;6146977;28;20226;-62
2021/06/11 11:33:37;;;;;;;6.30;3.50;;;;;;;28.03;34.63;101675.41;6341963;23;20392;-62
2021/06/11 11:36:59;;;;;;;4.63;3.50;;;;;;;27.92;35.00;101683.31;6147015;28;20234;-60
2021/06/11 11:40:20;;;;;;;4.32;3.92;;;;;;;28.51;34.16;101661.34;6151746;28;20234;-60
2021/06/11 11:43:42;;;;;;;4.22;3.72;;;;;;;28.42;34.29;101665.53;6163412;28;20313;-61
2021/06/11 11:47:02;;;;;;;5.90;3.83;;;;;;;29.16;33.28;101654.84;6146455;28;20231;-59
2021/06/11 11:50:26;;;;;;;4.80;4.22;;;;;;;28.98;33.04;101651.66;6149834;28;20219;-62
2021/06/11 11:53:48;;;;;;;2.92;2.72;;;;;;;29.48;32.75;101656.91;6148926;28;20522;-63
2021/06/11 11:57:08;;;;;;;4.53;2.75;;;;;;;30.01;32.36;101653.78;6144517;28;20239;-61
2021/06/11 12:00:31;;;;;;;2.70;2.50;;;;;;;29.76;31.41;101660.19;6131674;28;20235;-61
2021/06/11 12:03:51;;;;;;;8.27;3.60;;;;;;;29.00;32.52;101648.88;6132154;28;20251;-63
2021/06/11 12:07:11;;;;;;;5.57;3.10;;;;;;;28.63;32.80;101648.88;6139053;28;20736;-62
2021/06/11 12:10:33;;;;;;;3.78;3.47;;;;;;;28.70;33.45;101652.00;6134580;28;20258;-62
2021/06/11 12:13:53;;;;;;;3.63;3.33;;;;;;;29.39;32.05;101641.50;6135522;28;20248;-66
2021/06/11 12:17:14;;;;;;;4.05;3.75;;;;;;;28.10;33.99;101643.69;6134655;28;20231;-66
2021/06/11 12:20:34;;;;;;;3.03;2.83;;;;;;;29.01;32.38;101646.06;6135639;28;20294;-65
2021/06/11 12:23:55;;;;;;;3.30;3.00;;;;;;;29.33;32.00;101639.31;6141303;28;20227;-61
2021/06/11 12:27:16;;;;;;;4.80;2.88;;;;;;;29.70;31.39;101621.25;6129980;28;20231;-66
2021/06/11 12:30:37;;;;;;;4.03;3.08;;;;;;;28.02;32.56;101633.53;6119671;28;20625;-65
2021/06/11 12:33:57;;;;;;;3.45;3.25;;;;;;;28.47;32.18;101625.84;6137410;28;20230;-67
2021/06/11 12:37:17;;;;;;;4.05;2.80;;;;;;;29.21;31.70;101620.47;6125218;28;20242;-65
2021/06/11 12:40:38;;;;;;;3.22;3.03;;;;;;;28.46;32.72;101613.44;6136255;28;20235;-65
2021/06/11 12:44:15;;;;;;;3.47;3.28;;;;;;;28.19;34.06;101618.06;6134136;28;20227;-63
2021/06/11 12:47:38;;;;;;;3.33;3.10;;;;;;;28.41;32.89;101617.41;6129568;28;20234;-65
2021/06/11 12:50:58;;;;;;;2.60;2.40;;;;;;;29.09;31.49;101615.16;6134988;28;20314;-64
2021/06/11 12:54:19;;;;;;;2.13;1.92;;;;;;;28.76;31.26;101614.88;6138338;28;20239;-61
2021/06/11 12:57:40;;;;;;;7.75;2.85;;;;;;;28.98;30.61;101614.13;6122607;28;20452;-62
2021/06/11 13:01:02;;;;;;;2.53;2.33;;;;;;;28.76;31.66;101604.16;6123609;28;20235;-58
2021/06/11 13:04:23;;;;;;;3.50;2.92;;;;;;;28.45;32.47;101617.06;6135014;28;20585;-61
2021/06/11 13:07:43;;;;;;;3.50;2.63;;;;;;;28.28;32.44;101609.41;6133161;28;20511;-54
2021/06/11 13:11:04;;;;;;;3.30;1.75;;;;;;;29.68;30.09;101600.84;6134232;28;20232;-61
2021/06/11 13:14:25;;;;;;;3.97;2.00;;;;;;;28.21;31.83;101618.84;6124086;28;20235;-59
2021/06/11 13:17:47;;;;;;;3.55;2.83;;;;;;;28.30;31.71;101603.94;6133505;28;20322;-55
2021/06/11 13:21:07;;;;;;;2.30;2.03;;;;;;;29.52;30.31;101602.03;6120956;28;20235;-59
2021/06/11 13:24:28;;;;;;;3.72;2.90;;;;;;;31.61;27.46;101599.56;6135993;28;20235;-58
2021/06/11 13:27:49;;;;;;;3.58;2.88;;;;;;;30.64;28.93;101605.78;6134211;28;20227;-58
2021/06/11 13:31:09;;;;;;;2.53;2.30;;;;;;;31.58;27.84;101601.53;6125731;28;20563;-57
2021/06/11 13:34:30;;;;;;;2.17;2.08;;;;;;;28.95;31.38;101597.44;6129331;28;20537;-57
2021/06/11 13:37:51;;;;;;;2.13;1.95;;;;;;;28.03;32.00;101595.09;6137281;28;20239;-58
2021/06/11 13:41:12;;;;;;;2.53;2.20;;;;;;;27.33;34.29;101598.09;6132099;28;20623;-56
2021/06/11 13:44:32;;;;;;;4.38;2.15;;;;;;;28.43;32.81;101596.72;6134070;28;20235;-54
2021/06/11 13:47:53;;;;;;;2.50;2.05;;;;;;;28.01;33.39;101606.84;6132598;28;20227;-53
2021/06/11 13:51:15;;;;;;;4.75;2.40;;;;;;;27.38;34.42;101604.00;6137317;28;20239;-49
2021/06/11 13:54:36;;;;;;;2.15;2.00;;;;;;;28.12;33.95;101598.09;6117995;28;20239;-52
2021/06/11 13:57:56;;;;;;;3.95;2.55;;;;;;;27.95;34.98;101594.75;6124684;28;20243;-54
2021/06/11 14:01:17;;;;;;;4.22;2.00;;;;;;;28.30;34.52;101588.72;6125575;28;20574;-53
2021/06/11 14:04:37;;;;;;;2.50;1.90;;;;;;;28.94;33.61;101585.00;6124297;28;20726;-49
2021/06/11 14:07:59;;;;;;;3.78;2.78;;;;;;;28.80;33.89;101578.84;6125575;28;20227;-49
2021/06/11 14:11:20;;;;;;;3.25;2.33;;;;;;;28.75;34.12;101586.38;6124300;28;20231;-55
2021/06/11 14:14:41;;;;;;;3.30;2.10;;;;;;;28.67;34.29;101588.75;6127851;28;20231;-53
2021/06/11 14:18:02;;;;;;;3.38;2.42;;;;;;;28.58;35.13;101590.28;6122753;28;20318;-53
2021/06/11 14:21:23;;;;;;;1.83;1.73;;;;;;;28.66;35.56;101584.38;6121467;28;20346;-55
2021/06/11 14:24:45;;;;;;;2.40;2.20;;;;;;;28.63;34.68;101589.94;6128758;28;20231;-53
2021/06/11 14:28:05;;;;;;;2.45;2.22;;;;;;;28.81;34.41;101582.38;6125879;28;20236;-52
2021/06/11 14:31:25;;;;;;;2.70;1.90;;;;;;;29.01;33.81;101596.97;6128742;28;20255;-54
2021/06/11 14:34:47;;;;;;;2.55;1.80;;;;;;;28.95;34.23;101592.06;6127182;28;20582;-54
2021/06/11 14:38:10;;;;;;;3.22;2.35;;;;;;;28.67;35.29;101591.44;6123843;28;20227;-54
2021/06/11 14:41:31;;;;;;;2.50;2.25;;;;;;;28.59;35.36;101591.13;6125189;28;20226;-53
2021/06/11 14:44:52;;;;;;;3.63;2.15;;;;;;;28.45;35.93;101605.50;6128503;28;20874;-55
2021/06/11 14:48:12;;;;;;;2.88;2.53;;;;;;;28.02;36.67;101595.19;6131724;28;20285;-50
2021/06/11 14:51:33;;;;;;;3.00;2.80;;;;;;;28.05;37.04;101600.31;6122527;28;20246;-52
2021/06/11 14:54:56;;;;;;;3.55;2.22;;;;;;;27.76;37.75;101602.34;6120439;28;20238;-52
2021/06/11 14:58:18;;;;;;;3.25;2.25;;;;;;;26.94;39.89;101601.59;6119940;28;20321;-52
2021/06/11 15:01:40;;;;;;;2.58;2.38;;;;;;;27.47;39.13;101607.84;6120590;28;20227;-50
2021/06/11 15:05:01;;;;;;;2.10;1.90;;;;;;;27.67;39.17;101615.38;6124886;28;20236;-52
2021/06/11 15:08:21;;;;;;;4.45;2.65;;;;;;;27.55;40.07;101604.66;6123087;28;20317;-53
2021/06/11 15:11:42;;;;;;;3.53;3.10;;;;;;;27.67;40.52;101609.19;6117749;28;20231;-54
2021/06/11 15:15:05;;;;;;;3.97;3.67;;;;;;;27.76;40.35;101610.34;6120154;28;20318;-49
2021/06/11 15:18:27;;;;;;;6.45;2.92;;;;;;;27.38;40.77;101613.84;6126751;28;20243;-52
2021/06/11 15:21:48;;;;;;;2.70;2.50;;;;;;;27.52;40.44;101608.41;6118484;28;20235;-56
2021/06/11 15:25:09;;;;;;;2.28;2.08;;;;;;;28.65;37.98;101602.28;6117344;28;20834;-52
2021/06/11 15:28:30;;;;;;;2.28;2.17;;;;;;;28.88;36.48;101590.81;6127310;28;20243;-51
2021/06/11 15:31:52;;;;;;;2.90;2.35;;;;;;;29.40;36.08;101582.38;6112885;28;20928;-54